Time;durP1;ratioP1;P1;durP2;ratioP2;P2;SDS_P1;SDS_P2;PMS_P1;PMS_P2;Temp;Humidity;BMP_temperature;BMP_pressure;BME280_temperature;BME280_humidity;BME280_pressure;Samples;Min_cycle;Max_cycle;Signal;HPM_P1;HPM_P2
2022/10/19 00:00:07;;;;;;;17.70;15.57;;;;;;;29.72;68.48;100775.28;5051093;28;69947;-38
2022/10/19 00:02:38;;;;;;;15.93;14.43;;;;;;;29.69;69.65;100764.91;5052598;28;66125;-38
2022/10/19 00:05:09;;;;;;;16.08;14.70;;;;;;;29.83;70.28;100797.06;5059863;28;69495;-37
2022/10/19 00:07:40;;;;;;;15.87;14.17;;;;;;;29.77;70.54;100789.81;5058011;28;66592;-39
2022/10/19 00:10:10;;;;;;;15.80;14.50;;;;;;;29.91;71.28;100803.28;5057694;28;69230;-38
2022/10/19 00:12:41;;;;;;;15.35;13.73;;;;;;;29.87;70.88;100789.38;5061855;28;65291;-38
2022/10/19 00:15:11;;;;;;;14.15;12.73;;;;;;;29.88;72.04;100801.84;5059674;28;69591;-37
2022/10/19 00:17:42;;;;;;;12.93;11.52;;;;;;;29.93;72.36;100807.44;5073156;28;65516;-38
2022/10/19 00:20:12;;;;;;;11.63;10.75;;;;;;;29.78;72.92;100796.91;5074669;28;70677;-38
2022/10/19 00:22:43;;;;;;;16.60;11.43;;;;;;;29.88;73.00;100806.41;5070073;27;65348;-38
2022/10/19 00:25:13;;;;;;;11.20;10.30;;;;;;;29.87;73.97;100811.00;5061084;28;70285;-37
2022/10/19 00:27:43;;;;;;;11.15;10.25;;;;;;;29.92;73.22;100807.63;5064746;28;65450;-38
2022/10/19 00:30:14;;;;;;;10.95;10.02;;;;;;;29.92;72.79;100813.03;5063145;28;69755;-38
2022/10/19 00:32:45;;;;;;;9.93;9.13;;;;;;;29.96;72.72;100819.69;5062782;28;65622;-38
2022/10/19 00:35:15;;;;;;;9.63;8.90;;;;;;;29.93;71.72;100815.53;5063461;28;70751;-39
2022/10/19 00:37:46;;;;;;;10.15;7.88;;;;;;;29.97;71.26;100832.16;5059973;28;65954;-37
2022/10/19 00:40:16;;;;;;;7.68;7.18;;;;;;;29.98;70.78;100833.84;5070069;27;70358;-37
2022/10/19 00:42:52;;;;;;;8.52;6.95;;;;;;;29.98;71.07;100834.66;5055396;28;66382;-37
2022/10/19 00:45:23;;;;;;;7.93;7.43;;;;;;;29.98;70.93;100834.66;5058711;28;70260;-37
2022/10/19 00:47:54;;;;;;;7.30;6.80;;;;;;;29.99;70.32;100843.59;5058898;28;65243;-38
2022/10/19 00:50:24;;;;;;;7.28;6.78;;;;;;;29.99;70.64;100841.72;5051466;28;70946;-38
2022/10/19 00:52:55;;;;;;;7.53;6.93;;;;;;;30.00;70.32;100845.25;5056712;28;66188;-36
2022/10/19 00:55:25;;;;;;;7.38;6.80;;;;;;;30.01;69.93;100849.63;5051780;28;69497;-37
2022/10/19 00:57:56;;;;;;;7.28;6.80;;;;;;;30.00;70.00;100843.38;5054244;28;66361;-38
2022/10/19 01:00:33;;;;;;;7.35;6.70;;;;;;;29.94;70.01;100829.91;5052806;28;69786;-38
2022/10/19 01:03:06;;;;;;;6.55;6.10;;;;;;;29.90;69.60;100839.50;5057093;28;65690;-38
2022/10/19 01:05:43;;;;;;;6.93;6.43;;;;;;;29.93;69.72;100841.78;5061177;28;69672;-38
2022/10/19 01:08:17;;;;;;;6.88;6.47;;;;;;;30.00;69.73;100854.19;5043194;28;65623;-38
2022/10/19 01:11:29;;;;;;;6.38;5.97;;;;;;;29.91;69.37;100857.38;5060211;28;69347;-38
2022/10/19 01:14:51;;;;;;;8.10;5.63;;;;;;;29.85;69.72;100864.47;5048389;28;66596;-38
2022/10/19 01:17:40;;;;;;;6.57;6.07;;;;;;;29.95;69.60;100856.75;5051693;28;69848;-38
2022/10/19 01:20:56;;;;;;;5.00;4.70;;;;;;;29.86;69.82;100857.19;5049716;28;66693;-38
2022/10/19 01:23:53;;;;;;;4.90;4.60;;;;;;;29.92;69.78;100869.84;5048110;28;69893;-39
2022/10/19 01:26:59;;;;;;;5.05;4.72;;;;;;;29.31;69.34;100774.59;5060567;28;65642;-37
2022/10/19 01:29:56;;;;;;;5.72;5.28;;;;;;;29.99;69.78;100867.94;5056145;28;70036;-37
2022/10/19 01:32:57;;;;;;;6.35;5.68;;;;;;;29.89;69.67;100872.97;5053095;28;65188;-36
2022/10/19 01:35:43;;;;;;;5.25;4.85;;;;;;;29.96;69.08;100868.38;5059686;28;69597;-38
2022/10/19 01:38:48;;;;;;;5.75;5.38;;;;;;;29.88;69.05;100877.56;5061022;28;66373;-37
2022/10/19 01:41:34;;;;;;;5.68;5.07;;;;;;;29.89;69.10;100883.78;5049824;28;68626;-37
2022/10/19 01:44:20;;;;;;;5.90;5.40;;;;;;;29.29;69.40;100781.25;5057432;28;66222;-36
2022/10/19 01:47:04;;;;;;;5.88;5.57;;;;;;;29.46;69.04;100803.22;5058287;28;69593;-37
2022/10/19 01:49:49;;;;;;;5.63;5.32;;;;;;;29.50;68.86;100807.16;5053675;28;66130;-37
2022/10/19 01:52:27;;;;;;;6.20;5.57;;;;;;;29.99;69.52;100886.88;5050752;28;69578;-37
2022/10/19 01:55:04;;;;;;;6.18;5.57;;;;;;;29.96;69.52;100884.59;5055614;28;66332;-36
2022/10/19 01:57:46;;;;;;;7.38;5.82;;;;;;;30.01;68.88;100890.22;5056170;28;69407;-37
2022/10/19 02:00:19;;;;;;;5.80;5.40;;;;;;;29.99;68.90;100892.28;5050950;28;66566;-38
2022/10/19 02:02:53;;;;;;;5.93;5.53;;;;;;;29.35;69.14;100797.44;5054986;28;70558;-38
2022/10/19 02:05:32;;;;;;;5.82;5.38;;;;;;;29.47;69.32;100821.09;5054200;28;65488;-38
2022/10/19 02:08:17;;;;;;;5.80;5.40;;;;;;;29.85;69.19;100899.63;5054240;28;69687;-38
2022/10/19 02:10:51;;;;;;;5.95;5.45;;;;;;;30.01;69.30;100909.97;5056731;28;66091;-38
2022/10/19 02:13:26;;;;;;;6.00;5.60;;;;;;;29.81;69.31;100869.47;5057629;28;69276;-38
2022/10/19 02:16:02;;;;;;;6.38;5.55;;;;;;;30.04;69.51;100914.94;5041721;28;65869;-38
2022/10/19 02:18:40;;;;;;;6.22;5.63;;;;;;;30.02;69.36;100910.78;5043746;28;69563;-38
2022/10/19 02:21:13;;;;;;;7.82;5.50;;;;;;;30.03;69.29;100917.84;5059274;28;65983;-38
2022/10/19 02:23:45;;;;;;;5.47;5.18;;;;;;;30.03;69.28;100913.31;5038603;28;70865;-37
2022/10/19 02:26:24;;;;;;;5.22;4.93;;;;;;;30.04;69.35;100914.13;5041575;28;64311;-38
2022/10/19 02:28:57;;;;;;;5.50;5.20;;;;;;;30.03;69.37;100907.03;5033521;28;70178;-37
2022/10/19 02:31:39;;;;;;;5.55;5.15;;;;;;;30.03;69.06;100915.16;5051960;28;66351;-38
2022/10/19 02:34:15;;;;;;;5.75;5.35;;;;;;;30.02;69.06;100921.63;5059382;28;69971;-38
2022/10/19 02:36:47;;;;;;;5.72;5.25;;;;;;;30.03;69.16;100916.00;5042910;28;65755;-38
2022/10/19 02:39:23;;;;;;;5.47;5.05;;;;;;;30.03;69.41;100918.72;5057217;28;70438;-38
2022/10/19 02:42:05;;;;;;;5.10;4.78;;;;;;;29.96;69.46;100915.19;5057109;28;66347;-38
2022/10/19 02:44:42;;;;;;;4.97;4.68;;;;;;;30.06;69.12;100922.84;5059835;28;70923;-36
2022/10/19 02:47:45;;;;;;;5.22;4.85;;;;;;;29.89;69.66;100927.88;5059138;28;65577;-37
2022/10/19 02:50:26;;;;;;;4.82;4.57;;;;;;;30.03;69.39;100924.13;5056179;28;69488;-37
2022/10/19 02:53:04;;;;;;;4.82;4.53;;;;;;;30.06;69.32;100920.13;5057625;28;65974;-37
2022/10/19 02:55:36;;;;;;;5.15;4.75;;;;;;;30.05;69.76;100921.19;5059940;28;69183;-38
2022/10/19 02:58:15;;;;;;;4.88;4.63;;;;;;;30.05;69.14;100921.19;5057581;28;65622;-37
2022/10/19 03:00:51;;;;;;;4.68;4.28;;;;;;;30.03;69.61;100907.03;5059520;28;70172;-37
2022/10/19 03:03:26;;;;;;;5.18;4.78;;;;;;;29.94;69.07;100892.09;5059308;28;65294;-38
2022/10/19 03:06:02;;;;;;;5.28;4.88;;;;;;;30.04;69.52;100906.00;5059489;28;70338;-38
2022/10/19 03:08:35;;;;;;;5.00;4.50;;;;;;;30.06;69.13;100912.00;5045816;28;65175;-38
2022/10/19 03:11:11;;;;;;;4.97;4.68;;;;;;;30.01;69.68;100898.31;5058112;28;69840;-37
2022/10/19 03:13:49;;;;;;;4.75;4.45;;;;;;;30.04;69.46;100909.53;5046742;28;66575;-39
2022/10/19 03:16:23;;;;;;;4.95;4.65;;;;;;;30.05;69.52;100904.94;5058921;28;70110;-37
2022/10/19 03:19:10;;;;;;;4.30;3.92;;;;;;;29.97;69.29;100902.47;5058619;28;65583;-37
2022/10/19 03:21:43;;;;;;;4.65;4.25;;;;;;;30.06;69.48;100901.19;5058998;28;70123;-37
2022/10/19 03:24:20;;;;;;;4.60;4.28;;;;;;;30.07;69.25;100894.75;5040815;28;65680;-38
2022/10/19 03:26:55;;;;;;;6.47;4.50;;;;;;;30.00;69.23;100880.41;5058338;28;70101;-37
2022/10/19 03:29:27;;;;;;;4.85;4.55;;;;;;;30.07;69.62;100886.63;5062738;28;65226;-37
2022/10/19 03:32:08;;;;;;;5.20;4.80;;;;;;;30.03;69.93;100879.97;5060331;28;70270;-37
2022/10/19 03:34:49;;;;;;;5.75;4.13;;;;;;;30.00;69.86;100870.41;5061238;28;65528;-37
2022/10/19 03:37:22;;;;;;;4.45;4.15;;;;;;;30.06;69.79;100876.84;5058875;28;69622;-37
2022/10/19 03:40:21;;;;;;;4.05;3.75;;;;;;;29.92;69.63;100873.41;5057169;28;65674;-37
2022/10/19 03:43:18;;;;;;;4.20;3.90;;;;;;;29.67;70.04;100804.84;5060706;28;69717;-37
2022/10/19 03:46:08;;;;;;;4.55;4.25;;;;;;;30.05;69.54;100867.09;5061034;28;67544;-37
2022/10/19 03:48:47;;;;;;;4.30;4.00;;;;;;;30.05;69.86;100858.97;5045854;28;69053;-37
2022/10/19 03:51:26;;;;;;;8.70;4.45;;;;;;;29.62;69.81;100778.44;5060585;28;66280;-37
2022/10/19 03:54:05;;;;;;;4.47;4.18;;;;;;;29.61;69.86;100774.06;5060783;28;70205;-37
2022/10/19 03:56:43;;;;;;;4.13;3.92;;;;;;;30.08;70.25;100845.00;5059522;28;65344;-37
2022/10/19 03:59:18;;;;;;;7.85;7.00;;;;;;;30.09;69.87;100843.13;5059189;28;71705;-37
2022/10/19 04:01:56;;;;;;;7.32;6.00;;;;;;;30.09;69.90;100835.88;5057649;28;65910;-37
2022/10/19 04:04:45;;;;;;;5.57;5.07;;;;;;;30.06;70.13;100831.72;5053945;28;70312;-38
2022/10/19 04:07:16;;;;;;;6.18;5.45;;;;;;;30.07;70.62;100829.84;5061416;28;64775;-37
2022/10/19 04:09:47;;;;;;;5.13;4.75;;;;;;;30.11;70.37;100832.94;5061452;28;70304;-37
2022/10/19 04:12:18;;;;;;;5.65;5.15;;;;;;;30.12;70.69;100824.59;5061612;28;66293;-38
2022/10/19 04:14:49;;;;;;;4.95;4.45;;;;;;;29.96;70.46;100795.34;5061252;28;69881;-37
2022/10/19 04:17:26;;;;;;;6.03;5.60;;;;;;;30.09;70.63;100818.78;5061417;28;66625;-39
2022/10/19 04:19:57;;;;;;;16.08;11.70;;;;;;;29.80;70.40;100769.63;5062070;28;70119;-39
2022/10/19 04:22:29;;;;;;;9.20;8.25;;;;;;;30.09;70.30;100813.38;5056639;28;64121;-38
2022/10/19 04:25:00;;;;;;;8.07;7.28;;;;;;;30.14;70.14;100805.44;5060552;28;70088;-38
2022/10/19 04:27:31;;;;;;;11.05;6.78;;;;;;;30.13;70.23;100809.19;5062069;28;66658;-38
2022/10/19 04:30:03;;;;;;;7.22;6.47;;;;;;;30.13;70.54;100809.19;5061373;28;69085;-38
2022/10/19 04:32:34;;;;;;;6.70;6.15;;;;;;;30.13;70.32;100798.38;5062894;28;65660;-38
2022/10/19 04:35:10;;;;;;;7.68;6.15;;;;;;;30.11;70.12;100786.94;5059452;28;70151;-38
2022/10/19 04:37:41;;;;;;;6.35;5.75;;;;;;;30.18;69.99;100796.69;5061695;28;66469;-38
2022/10/19 04:40:12;;;;;;;6.45;5.95;;;;;;;30.19;69.86;100787.50;5060666;28;70235;-38
2022/10/19 04:42:44;;;;;;;6.32;5.75;;;;;;;30.15;70.19;100778.19;5054715;28;66694;-38
2022/10/19 04:45:15;;;;;;;7.17;5.77;;;;;;;30.19;70.43;100782.09;5054354;28;70277;-37
2022/10/19 04:47:46;;;;;;;6.30;5.70;;;;;;;30.08;70.14;100763.84;5049729;28;66123;-39
2022/10/19 04:50:18;;;;;;;6.22;5.82;;;;;;;30.21;70.00;100777.31;5047688;28;70221;-37
2022/10/19 04:52:57;;;;;;;6.32;5.78;;;;;;;30.13;70.42;100747.81;5057557;28;66124;-36
2022/10/19 04:55:29;;;;;;;8.77;7.00;;;;;;;30.22;69.90;100757.34;5057745;28;70294;-36
2022/10/19 04:58:00;;;;;;;6.50;6.00;;;;;;;30.23;69.81;100750.91;5054700;28;65385;-37
2022/10/19 05:00:32;;;;;;;7.60;6.90;;;;;;;30.23;70.01;100750.91;5051229;28;70785;-37
2022/10/19 05:03:03;;;;;;;7.05;6.50;;;;;;;30.24;69.82;100746.31;5056019;28;65277;-37
2022/10/19 05:05:34;;;;;;;7.20;6.57;;;;;;;30.20;69.86;100737.78;5053421;28;69826;-38
2022/10/19 05:08:06;;;;;;;7.13;6.50;;;;;;;30.27;69.98;100743.16;5055440;28;65511;-38
2022/10/19 05:10:37;;;;;;;6.72;6.00;;;;;;;30.24;70.10;100730.91;5054873;28;70005;-38
2022/10/19 05:13:14;;;;;;;8.57;6.72;;;;;;;29.73;69.65;100639.91;5053160;28;65744;-37
2022/10/19 05:15:56;;;;;;;7.80;7.03;;;;;;;29.35;69.69;100585.84;5060291;28;70329;-39
2022/10/19 05:18:27;;;;;;;6.70;6.20;;;;;;;30.30;69.93;100734.59;5057603;28;67040;-38
2022/10/19 05:21:08;;;;;;;7.50;6.65;;;;;;;30.30;69.58;100736.47;5048990;28;70031;-36
2022/10/19 05:23:41;;;;;;;7.68;7.07;;;;;;;30.36;69.60;100716.66;5053064;28;65471;-37
2022/10/19 05:26:17;;;;;;;7.25;6.72;;;;;;;30.37;70.00;100729.97;5056362;28;70397;-37
2022/10/19 05:28:59;;;;;;;6.65;6.15;;;;;;;30.35;69.28;100732.06;5051487;28;65389;-36
2022/10/19 05:31:34;;;;;;;8.98;7.07;;;;;;;30.40;69.98;100726.00;5054530;28;70166;-39
2022/10/19 05:34:06;;;;;;;7.55;6.88;;;;;;;30.39;70.13;100705.38;5056512;28;66817;-39
2022/10/19 05:36:42;;;;;;;6.63;6.13;;;;;;;30.39;70.01;100700.78;5059530;28;68691;-38
2022/10/19 05:39:17;;;;;;;6.60;6.13;;;;;;;30.40;69.56;100697.06;5057756;28;66150;-38
2022/10/19 05:41:50;;;;;;;6.85;6.35;;;;;;;30.42;69.71;100686.00;5052597;28;69339;-38
2022/10/19 05:44:23;;;;;;;7.10;6.47;;;;;;;30.42;70.28;100694.13;5059766;28;64709;-42
2022/10/19 05:46:56;;;;;;;7.18;6.60;;;;;;;30.32;70.16;100655.91;5059447;28;70441;-38
2022/10/19 05:49:28;;;;;;;7.18;6.57;;;;;;;30.46;69.49;100673.69;5060028;28;66067;-38
2022/10/19 05:52:01;;;;;;;7.63;6.93;;;;;;;30.47;69.74;100664.50;5056717;28;70456;-38
2022/10/19 05:54:34;;;;;;;6.93;6.43;;;;;;;30.47;70.01;100664.50;5060074;28;66436;-37
2022/10/19 05:57:07;;;;;;;7.30;6.65;;;;;;;30.48;69.85;100660.78;5057725;28;70421;-38
2022/10/19 05:59:40;;;;;;;6.35;5.95;;;;;;;30.49;70.03;100659.72;5054316;28;65566;-38
2022/10/19 06:02:15;;;;;;;6.68;6.18;;;;;;;30.49;69.77;100652.41;5061430;27;70057;-39
2022/10/19 06:05:01;;;;;;;6.70;6.20;;;;;;;30.50;69.79;100654.06;5054993;28;66538;-38
2022/10/19 06:07:33;;;;;;;;;;;;;;;30.11;71.09;100649.81;5060125;28;69252;-38
2022/10/19 06:10:05;;;;;;;6.40;5.50;;;;;;;30.42;70.30;100645.41;5060584;28;67084;-36
2022/10/19 06:12:37;;;;;;;6.00;5.60;;;;;;;30.53;69.52;100641.97;5060101;28;70412;-38
2022/10/19 06:15:09;;;;;;;6.15;5.75;;;;;;;30.55;69.87;100650.69;5057749;28;66349;-39
2022/10/19 06:17:43;;;;;;;6.40;5.90;;;;;;;30.58;69.65;100644.81;5060493;28;70058;-36
2022/10/19 06:20:28;;;;;;;6.82;6.32;;;;;;;30.58;70.09;100644.81;5044654;28;66408;-37
2022/10/19 06:23:00;;;;;;;6.68;6.07;;;;;;;30.45;69.54;100620.59;5060262;28;69535;-38
2022/10/19 06:25:33;;;;;;;6.55;6.05;;;;;;;30.59;69.42;100630.25;5059297;28;65920;-39
2022/10/19 06:28:05;;;;;;;6.63;6.22;;;;;;;30.63;69.44;100631.44;5056849;28;70054;-39
2022/10/19 06:30:40;;;;;;;;;;;;;;;30.23;70.74;100634.56;5044582;28;66721;-39
2022/10/19 06:33:12;;;;;;;6.47;5.97;;;;;;;30.59;69.68;100619.44;5057569;28;70323;-37
2022/10/19 06:35:44;;;;;;;7.45;6.75;;;;;;;30.65;69.54;100623.94;5057613;28;66105;-37
2022/10/19 06:38:20;;;;;;;6.55;6.05;;;;;;;30.69;69.66;100618.91;5058605;28;70093;-36
2022/10/19 06:40:51;;;;;;;6.97;6.47;;;;;;;30.30;69.24;100552.50;5053921;28;65601;-37
2022/10/19 06:43:24;;;;;;;6.35;5.85;;;;;;;30.70;69.06;100615.97;5055805;28;70426;-38
2022/10/19 06:45:56;;;;;;;6.10;5.70;;;;;;;30.73;69.30;100604.69;5058666;28;66699;-38
2022/10/19 06:48:27;;;;;;;6.28;5.55;;;;;;;30.72;69.53;100613.84;5056649;28;70015;-37
2022/10/19 06:51:01;;;;;;;5.82;5.43;;;;;;;30.76;69.14;100602.56;5059477;28;66195;-37
2022/10/19 06:53:36;;;;;;;6.00;5.50;;;;;;;30.30;69.36;100520.84;5058681;28;70212;-37
2022/10/19 06:56:09;;;;;;;6.30;5.90;;;;;;;30.80;68.79;100598.41;5058486;28;65355;-37
2022/10/19 06:58:40;;;;;;;5.80;5.43;;;;;;;30.82;69.02;100601.72;5058217;28;70354;-39
2022/10/19 07:01:12;;;;;;;6.05;5.55;;;;;;;30.82;69.22;100607.13;5060506;28;65215;-38
2022/10/19 07:03:44;;;;;;;6.22;5.53;;;;;;;30.85;68.79;100618.31;5062955;28;70180;-38
2022/10/19 07:06:16;;;;;;;6.43;5.88;;;;;;;30.85;69.40;100618.31;5062780;28;66468;-38
2022/10/19 07:08:48;;;;;;;6.63;6.13;;;;;;;30.86;68.64;100613.72;5063168;28;69899;-37
2022/10/19 07:11:21;;;;;;;6.18;5.65;;;;;;;30.39;68.67;100534.91;5056294;28;65989;-37
2022/10/19 07:13:53;;;;;;;7.00;6.07;;;;;;;30.65;69.00;100575.22;5060603;28;69420;-37
2022/10/19 07:16:25;;;;;;;6.28;5.88;;;;;;;30.90;69.21;100609.53;5064106;28;65711;-36
2022/10/19 07:19:00;;;;;;;10.18;5.78;;;;;;;30.67;68.91;100573.13;5053300;28;70304;-37
2022/10/19 07:21:32;;;;;;;6.15;5.75;;;;;;;30.97;68.48;100598.59;5061631;28;66173;-36
2022/10/19 07:24:04;;;;;;;;;;;;;;;30.58;69.85;100590.69;5062374;28;70295;-38
2022/10/19 07:26:35;;;;;;;6.78;6.07;;;;;;;30.93;69.34;100587.41;5065986;28;66817;-36
2022/10/19 07:29:07;;;;;;;6.20;5.70;;;;;;;30.97;69.15;100594.00;5063138;28;69479;-36
2022/10/19 07:31:39;;;;;;;6.63;6.13;;;;;;;30.95;68.44;100579.84;5061028;28;66837;-37
2022/10/19 07:34:12;;;;;;;5.57;5.28;;;;;;;31.03;68.43;100582.25;5062117;28;70057;-39
2022/10/19 07:36:46;;;;;;;6.00;5.60;;;;;;;31.06;68.56;100592.63;5063847;28;66741;-38
2022/10/19 07:39:18;;;;;;;6.60;6.18;;;;;;;31.07;68.81;100575.34;5064149;28;70273;-39
2022/10/19 07:41:50;;;;;;;6.68;6.00;;;;;;;31.05;68.68;100572.03;5059690;28;66527;-39
2022/10/19 07:44:21;;;;;;;10.57;6.30;;;;;;;31.05;68.25;100563.06;5067785;28;69236;-37
2022/10/19 07:46:52;;;;;;;6.53;6.13;;;;;;;31.09;68.57;100567.81;5063856;28;66324;-39
2022/10/19 07:49:24;;;;;;;6.25;5.70;;;;;;;31.12;68.23;100570.06;5062575;28;69975;-39
2022/10/19 07:51:57;;;;;;;6.22;5.85;;;;;;;31.07;67.98;100561.78;5060992;28;66600;-38
2022/10/19 07:54:29;;;;;;;6.95;5.80;;;;;;;31.17;68.24;100577.47;5063311;28;69776;-37
2022/10/19 07:57:01;;;;;;;6.57;6.07;;;;;;;31.18;67.79;100571.03;5062314;28;65354;-38
2022/10/19 07:59:33;;;;;;;6.47;5.78;;;;;;;31.19;68.45;100571.84;5058175;28;69606;-39
2022/10/19 08:02:06;;;;;;;7.30;6.03;;;;;;;31.19;68.19;100569.13;5060877;28;65313;-38
2022/10/19 08:04:38;;;;;;;6.63;6.03;;;;;;;31.23;67.96;100571.16;5061346;28;69397;-38
2022/10/19 08:07:35;;;;;;;7.60;6.75;;;;;;;31.23;68.11;100563.03;5058771;28;66085;-36
2022/10/19 08:10:11;;;;;;;6.00;5.53;;;;;;;31.27;67.69;100580.47;5058557;28;70132;-37
2022/10/19 08:12:46;;;;;;;7.07;5.95;;;;;;;31.30;67.93;100576.47;5059319;28;66093;-38
2022/10/19 08:15:20;;;;;;;6.60;6.10;;;;;;;31.32;67.84;100577.91;5056752;28;70107;-36
2022/10/19 08:17:51;;;;;;;;;;;;;;;30.97;68.68;100583.16;5045333;28;65265;-36
2022/10/19 08:20:27;;;;;;;7.05;6.35;;;;;;;31.25;67.55;100585.28;5060808;28;69818;-36
2022/10/19 08:23:00;;;;;;;6.82;6.00;;;;;;;31.37;67.52;100586.22;5061296;28;66840;-37
2022/10/19 08:25:32;;;;;;;6.93;6.32;;;;;;;31.39;67.45;100592.19;5061574;28;70411;-36
2022/10/19 08:28:03;;;;;;;7.75;6.68;;;;;;;31.39;67.69;100596.81;5052974;28;65142;-39
2022/10/19 08:30:36;;;;;;;7.10;6.43;;;;;;;31.42;67.42;100584.69;5059808;28;69658;-36
2022/10/19 08:33:11;;;;;;;6.95;6.15;;;;;;;31.43;67.71;100584.47;5058953;28;66747;-36
2022/10/19 08:35:42;;;;;;;6.30;5.85;;;;;;;31.45;67.22;100601.28;5058176;28;69681;-38
2022/10/19 08:38:13;;;;;;;8.33;6.30;;;;;;;31.45;67.47;100601.28;5061317;28;66283;-37
2022/10/19 08:40:46;;;;;;;5.72;5.43;;;;;;;31.46;67.14;100592.13;5060628;28;70016;-37
2022/10/19 08:43:34;;;;;;;6.63;6.10;;;;;;;31.38;66.83;100590.56;5057266;28;66581;-37
2022/10/19 08:46:12;;;;;;;6.40;5.40;;;;;;;31.46;66.63;100592.13;5058109;28;69732;-36
2022/10/19 08:48:45;;;;;;;9.52;6.03;;;;;;;31.51;66.73;100589.56;5059627;28;66114;-37
2022/10/19 08:51:17;;;;;;;7.20;6.50;;;;;;;31.50;66.75;100590.59;5060961;28;69343;-37
2022/10/19 08:53:53;;;;;;;6.95;6.30;;;;;;;31.50;66.78;100598.72;5059049;28;66090;-36
2022/10/19 08:56:31;;;;;;;6.78;6.13;;;;;;;31.00;66.66;100509.56;5060191;28;70241;-38
2022/10/19 08:59:39;;;;;;;7.75;6.95;;;;;;;31.52;66.55;100599.31;5058590;28;66104;-37
2022/10/19 09:02:27;;;;;;;7.13;6.37;;;;;;;31.00;66.78;100520.41;5051500;28;70657;-37
2022/10/19 09:05:13;;;;;;;7.15;6.45;;;;;;;31.20;66.33;100562.66;5057462;28;65306;-38
2022/10/19 09:07:46;;;;;;;7.60;7.00;;;;;;;31.53;66.28;100608.28;5059074;28;70131;-39
2022/10/19 09:10:20;;;;;;;7.65;7.07;;;;;;;31.53;66.17;100613.69;5055349;28;66111;-38
2022/10/19 09:12:59;;;;;;;8.00;7.40;;;;;;;31.48;66.37;100617.13;5054613;28;69982;-38
2022/10/19 09:15:41;;;;;;;8.43;7.75;;;;;;;31.52;66.48;100623.72;5056398;28;65470;-38
2022/10/19 09:18:18;;;;;;;8.63;7.88;;;;;;;31.50;66.78;100628.53;5055142;28;70204;-38
2022/10/19 09:21:00;;;;;;;8.65;7.63;;;;;;;31.05;66.64;100557.66;5055219;28;65241;-38
2022/10/19 09:23:38;;;;;;;7.85;7.05;;;;;;;31.54;66.77;100640.59;5058093;28;69552;-38
2022/10/19 09:26:21;;;;;;;9.32;7.55;;;;;;;31.44;66.60;100637.59;5058720;28;65729;-38
2022/10/19 09:29:02;;;;;;;8.68;7.97;;;;;;;31.50;66.61;100647.53;5060458;28;70172;-38
2022/10/19 09:31:37;;;;;;;9.40;8.70;;;;;;;31.20;66.68;100592.47;5059678;28;66706;-38
2022/10/19 09:34:35;;;;;;;8.98;8.27;;;;;;;31.32;66.95;100634.00;5060133;28;44422;-38
2022/10/19 09:37:11;;;;;;;9.90;9.00;;;;;;;31.48;66.92;100652.38;5060961;28;65945;-38
2022/10/19 09:39:53;;;;;;;10.60;9.18;;;;;;;31.34;67.15;100632.72;5060625;28;70170;-38
2022/10/19 09:42:35;;;;;;;9.73;8.75;;;;;;;30.87;67.58;100550.38;5059165;28;66178;-38
2022/10/19 09:45:25;;;;;;;9.90;9.10;;;;;;;30.86;68.16;100575.81;5060948;28;70295;-38
2022/10/19 09:47:57;;;;;;;10.20;9.50;;;;;;;31.42;67.58;100666.81;5061248;28;66480;-38
2022/10/19 09:50:43;;;;;;;10.80;9.43;;;;;;;31.40;68.05;100674.38;5057306;28;69940;-38
2022/10/19 09:53:20;;;;;;;9.52;8.73;;;;;;;31.29;68.27;100666.97;5059332;28;66293;-38
2022/10/19 09:56:25;;;;;;;9.63;8.85;;;;;;;31.28;68.50;100668.03;5060844;28;70339;-38
2022/10/19 09:58:58;;;;;;;10.73;9.43;;;;;;;30.76;68.17;100580.91;5053117;28;66040;-38
2022/10/19 10:01:39;;;;;;;9.68;8.77;;;;;;;30.89;68.02;100602.44;5059412;28;69762;-37
2022/10/19 10:04:17;;;;;;;9.48;8.88;;;;;;;30.90;68.10;100604.13;5060375;28;65446;-37
2022/10/19 10:06:49;;;;;;;8.98;8.27;;;;;;;30.98;68.19;100625.47;5059081;28;70408;-39
2022/10/19 10:09:28;;;;;;;9.93;8.77;;;;;;;31.34;68.23;100696.91;5060861;28;66652;-36
2022/10/19 10:11:59;;;;;;;9.43;8.52;;;;;;;31.35;68.02;100685.03;5059078;28;70953;-36
2022/10/19 10:14:38;;;;;;;10.27;9.48;;;;;;;31.32;68.02;100699.03;5058866;28;66315;-38
2022/10/19 10:17:22;;;;;;;10.65;9.90;;;;;;;30.80;68.99;100620.06;5057435;28;70160;-37
2022/10/19 10:19:59;;;;;;;11.00;10.15;;;;;;;31.08;70.00;100698.06;5046346;27;65459;-38
2022/10/19 10:22:35;;;;;;;10.93;9.90;;;;;;;31.09;70.50;100726.81;5070645;28;69905;-38
2022/10/19 10:25:17;;;;;;;11.75;10.70;;;;;;;30.75;71.95;100672.13;5050197;28;66540;-38
2022/10/19 10:28:16;;;;;;;12.43;11.18;;;;;;;30.04;72.02;100562.50;5059496;28;70405;-39
2022/10/19 10:30:52;;;;;;;11.80;10.60;;;;;;;30.99;71.42;100726.53;5061748;28;65753;-38
2022/10/19 10:33:27;;;;;;;11.85;10.75;;;;;;;30.91;73.05;100708.69;5051345;28;70136;-39
2022/10/19 10:36:14;;;;;;;11.88;10.68;;;;;;;31.04;72.14;100730.22;5060003;28;66689;-39
2022/10/19 10:38:51;;;;;;;13.45;11.48;;;;;;;31.03;72.19;100728.53;5060715;28;69738;-38
2022/10/19 10:41:24;;;;;;;11.82;10.77;;;;;;;31.03;71.52;100733.94;5063420;28;65806;-38
2022/10/19 10:44:00;;;;;;;14.15;11.30;;;;;;;30.99;72.07;100738.19;5069310;28;70196;-39
2022/10/19 10:46:58;;;;;;;14.40;11.70;;;;;;;30.45;73.11;100653.91;5069950;27;66165;-38
2022/10/19 10:49:35;;;;;;;14.77;11.50;;;;;;;30.51;72.41;100638.66;5065308;28;69499;-39
2022/10/19 10:52:12;;;;;;;13.20;11.70;;;;;;;31.03;73.62;100733.94;5046347;28;66310;-39
2022/10/19 10:55:04;;;;;;;14.85;13.18;;;;;;;30.86;74.72;100730.19;5068590;28;70211;-38
2022/10/19 10:57:41;;;;;;;15.52;13.93;;;;;;;30.87;73.82;100707.44;5073736;28;65901;-39
2022/10/19 11:00:18;;;;;;;17.50;14.35;;;;;;;30.97;73.73;100737.56;5068327;28;69029;-39
2022/10/19 11:03:02;;;;;;;18.00;14.85;;;;;;;30.93;73.73;100730.97;5063829;27;65984;-38
2022/10/19 11:05:40;;;;;;;20.02;16.85;;;;;;;30.96;74.04;100743.22;5065750;28;70230;-38
2022/10/19 11:08:23;;;;;;;24.02;17.77;;;;;;;30.80;74.09;100728.38;5061008;28;66393;-38
2022/10/19 11:11:16;;;;;;;28.55;17.17;;;;;;;30.65;74.41;100705.16;5054499;28;69573;-39
2022/10/19 11:13:50;;;;;;;31.45;18.60;;;;;;;30.97;73.74;100739.47;5052092;28;66549;-37
2022/10/19 11:16:34;;;;;;;36.88;20.48;;;;;;;30.44;73.78;100659.53;5063288;27;69188;-38
2022/10/19 11:19:32;;;;;;;32.55;21.10;;;;;;;30.89;75.33;100754.09;5066393;28;66854;-38
2022/10/19 11:22:16;;;;;;;40.03;22.15;;;;;;;30.91;75.13;100752.00;5060860;28;70315;-39
2022/10/19 11:25:10;;;;;;;37.55;22.92;;;;;;;30.95;73.87;100753.22;5057694;28;66911;-38
2022/10/19 11:27:52;;;;;;;38.28;22.52;;;;;;;30.93;74.96;100763.47;5059547;28;69353;-38
2022/10/19 11:30:25;;;;;;;40.33;21.40;;;;;;;30.98;74.41;100763.63;5059275;28;66471;-39
2022/10/19 11:33:14;;;;;;;27.33;20.30;;;;;;;31.00;74.38;100764.22;5060528;27;70147;-39
2022/10/19 11:35:57;;;;;;;26.77;19.25;;;;;;;31.02;73.75;100781.06;5060106;28;65699;-38
2022/10/19 11:38:52;;;;;;;23.90;18.10;;;;;;;30.95;74.00;100769.47;5063846;28;70182;-38
2022/10/19 11:41:43;;;;;;;21.38;17.42;;;;;;;30.37;73.94;100669.59;5058093;28;65483;-37
2022/10/19 11:44:23;;;;;;;26.45;17.92;;;;;;;31.08;73.37;100784.75;5056584;28;69736;-36
2022/10/19 11:47:19;;;;;;;22.60;17.27;;;;;;;30.20;73.39;100642.22;5055972;28;65958;-39
2022/10/19 11:50:10;;;;;;;19.85;16.35;;;;;;;31.12;73.33;100792.22;5062033;28;70489;-38
2022/10/19 11:53:15;;;;;;;20.77;16.42;;;;;;;31.11;73.17;100793.25;5030943;28;66018;-39
2022/10/19 11:56:14;;;;;;;17.33;14.88;;;;;;;31.02;73.16;100797.31;5050350;28;69275;-39
2022/10/19 11:58:57;;;;;;;17.90;15.13;;;;;;;31.12;73.25;100794.94;5059957;28;66401;-39
2022/10/19 12:01:42;;;;;;;;;;;;;;;30.77;74.53;100810.03;5062663;28;69307;-38
2022/10/19 12:04:29;;;;;;;15.02;13.38;;;;;;;30.99;73.05;100815.91;5061072;28;66809;-39
2022/10/19 12:07:28;;;;;;;16.75;13.55;;;;;;;31.05;72.84;100821.25;5061291;28;69422;-39
2022/10/19 12:10:24;;;;;;;15.68;14.02;;;;;;;31.02;72.42;100824.41;5062238;28;66468;-39